• Join FlightAware (Why Join?)
  • Login
  • US Flag 
06:26PM EDT


 

Airport Tracker/Info


-or-


 

Live Flight TrackerFlight Track Log ✈ FDX1347 ✈ 26-Jun-2013 ✈ KALB - KMEM

Flight Track Log - Related Links

Times and Time Zones

All times are in EDT time to prevent confusion due to time zone crossing. See the FDX1347 flight status page for this flight to view local times or setup timezone preferences in your user account.

Time Position Orientation Groundspeed Altitude Reporting Facility
EDT Latitude Longitude Course Direction KTS MPH feet Rate Location/Type
10:03PM 42.7339 -73.8053 243° Southwest 153 176 1,200  Level Boston Center
10:05PM 42.6931 -73.9147 243° Southwest 242 278 5,500 2,760 Climbing Boston Center
10:06PM 42.6853 -74.0189 264° West 265 305 9,000 2,880 Climbing Boston Center
10:07PM 42.6756 -74.1261 263° West 282 325 11,300 1,980 Climbing Boston Center
10:08PM 42.6675 -74.2472 265° West 334 384 13,000 2,220 Climbing Boston Center
10:09PM 42.6069 -74.3753 237° Southwest 379 436 15,800 1,980 Climbing Boston Center
10:15PM 41.9044 -74.1772 237° Southwest 497 572 27,300 1,800 Climbing FlightAware ADS-B
10:15PM 41.8370 -74.2071 198° South 504 580 27,900 1,140 Climbing FlightAware ADS-B
10:16PM 41.7690 -74.2362 198° South 509 586 28,500 1,620 Climbing FlightAware ADS-B
10:16PM 41.6994 -74.2662 198° South 505 581 29,600 1,980 Climbing FlightAware ADS-B
10:17PM 41.6313 -74.2958 198° South 500 575 30,600 2,040 Climbing FlightAware ADS-B
10:17PM 41.5652 -74.3241 198° South 495 570 31,700 1,980 Climbing FlightAware ADS-B
10:18PM 41.4974 -74.3530 198° South 491 565 32,700 1,740 Climbing FlightAware ADS-B
10:18PM 41.4317 -74.3818 198° South 490 564 33,500 1,440 Climbing FlightAware ADS-B
10:19PM 41.3658 -74.4097 198° South 489 563 34,200 1,440 Climbing FlightAware ADS-B
10:19PM 41.3007 -74.4383 198° South 488 562 35,000 1,980 Climbing FlightAware ADS-B
10:20PM 41.2367 -74.4655 198° South 476 548 36,200 1,980 Climbing FlightAware ADS-B
10:20PM 41.1701 -74.4938 198° South 469 540 37,100 1,500 Climbing FlightAware ADS-B
10:21PM 41.1124 -74.5185 198° South 465 535 37,700 1,320 Climbing FlightAware ADS-B
10:21PM 41.0970 -74.5265 201° Southwest 463 533 37,900 960 Climbing FlightAware ADS-B
10:21PM 41.0788 -74.5368 203° Southwest 459 528 38,000 240 Climbing FlightAware ADS-B
10:21PM 41.0540 -74.5556 210° Southwest 452 520 38,000  Level FlightAware ADS-B
10:22PM 41.0396 -74.5677 212° Southwest 446 513 38,000  Level FlightAware ADS-B
10:22PM 40.9894 -74.6185 217° Southwest 439 505 38,000  Level FlightAware ADS-B
10:23PM 40.9414 -74.6705 219° Southwest 436 502 38,000  Level FlightAware ADS-B
10:23PM 40.8940 -74.7209 219° Southwest 438 504 38,000  Level FlightAware ADS-B
10:24PM 40.8453 -74.7715 218° Southwest 442 509 38,000  Level FlightAware ADS-B
10:24PM 40.7977 -74.8232 219° Southwest 444 511 38,000  Level FlightAware ADS-B
10:25PM 40.7525 -74.8807 224° Southwest 443 510 38,000  Level FlightAware ADS-B
10:25PM 40.7076 -74.9377 224° Southwest 447 514 38,000  Level FlightAware ADS-B
10:26PM 40.6625 -74.9972 225° Southwest 451 519 38,000  Level FlightAware ADS-B
10:26PM 40.6175 -75.0551 224° Southwest 454 522 38,000  Level FlightAware ADS-B
10:27PM 40.5722 -75.1131 224° Southwest 455 524 38,000  Level FlightAware ADS-B
10:27PM 40.5262 -75.1713 224° Southwest 456 525 38,000  Level FlightAware ADS-B
10:28PM 40.4809 -75.2292 224° Southwest 455 524 38,000  Level FlightAware ADS-B
10:28PM 40.4356 -75.2889 225° Southwest 453 521 38,000  Level FlightAware ADS-B
10:29PM 40.3901 -75.3460 224° Southwest 450 518 38,000  Level FlightAware ADS-B
10:29PM 40.3450 -75.4027 224° Southwest 446 513 38,000  Level FlightAware ADS-B
10:30PM 40.3004 -75.4607 225° Southwest 442 509 38,000  Level FlightAware ADS-B
10:30PM 40.2550 -75.5183 224° Southwest 440 506 38,000  Level FlightAware ADS-B
10:30PM 40.2302 -75.5530 227° Southwest 437 503 38,000  Level FlightAware ADS-B
10:31PM 40.2110 -75.5837 231° Southwest 433 498 38,000  Level FlightAware ADS-B
10:31PM 40.1845 -75.6329 235° Southwest 430 495 38,000  Level FlightAware ADS-B
10:32PM 40.1526 -75.7007 238° Southwest 426 490 38,000  Level FlightAware ADS-B
10:32PM 40.1215 -75.7663 238° Southwest 424 488 38,000  Level FlightAware ADS-B
10:33PM 40.0895 -75.8359 239° Southwest 422 486 38,000  Level FlightAware ADS-B
10:33PM 40.0593 -75.9017 239° Southwest 422 486 38,000  Level FlightAware ADS-B
10:34PM 40.0278 -75.9717 240° Southwest 422 486 38,000  Level FlightAware ADS-B
10:34PM 39.9961 -76.0394 239° Southwest 421 484 38,000  Level FlightAware ADS-B
10:35PM 39.9652 -76.1066 239° Southwest 421 484 38,000  Level FlightAware ADS-B
10:35PM 39.9332 -76.1761 239° Southwest 421 484 38,000  Level FlightAware ADS-B
10:36PM 39.9022 -76.2435 239° Southwest 423 487 38,000  Level FlightAware ADS-B
10:36PM 39.8703 -76.3111 238° Southwest 423 487 38,000  Level FlightAware ADS-B
10:37PM 39.8371 -76.3831 239° Southwest 423 487 38,000  Level FlightAware ADS-B
10:37PM 39.8054 -76.4505 239° Southwest 424 488 38,000  Level FlightAware ADS-B
10:38PM 39.7696 -76.5270 239° Southwest 426 490 38,000  Level FlightAware ADS-B
10:38PM 39.7384 -76.5949 239° Southwest 428 493 38,000  Level FlightAware ADS-B
10:39PM 39.7050 -76.6652 238° Southwest 429 494 38,000  Level FlightAware ADS-B
10:39PM 39.6736 -76.7334 239° Southwest 429 494 38,000  Level FlightAware ADS-B
10:40PM 39.6402 -76.8037 238° Southwest 429 494 38,000  Level FlightAware ADS-B
10:41PM 39.6079 -76.8718 238° Southwest 429 494 38,000  Level FlightAware ADS-B
10:41PM 39.5756 -76.9396 238° Southwest 429 494 38,000  Level FlightAware ADS-B
10:42PM 39.5390 -77.0183 239° Southwest 428 493 38,000  Level FlightAware ADS-B
10:42PM 39.5078 -77.0836 238° Southwest 426 490 38,000  Level FlightAware ADS-B
10:43PM 39.4767 -77.1487 238° Southwest 426 490 38,000  Level FlightAware ADS-B
10:43PM 39.4451 -77.2157 239° Southwest 425 489 38,000  Level FlightAware ADS-B
10:44PM 39.4141 -77.2804 238° Southwest 424 488 38,000  Level FlightAware ADS-B
10:44PM 39.3817 -77.3472 238° Southwest 423 487 38,000  Level FlightAware ADS-B
10:45PM 39.3502 -77.4135 238° Southwest 422 486 38,000  Level FlightAware ADS-B
10:45PM 39.3183 -77.4800 238° Southwest 423 487 38,000  Level FlightAware ADS-B
10:46PM 39.2850 -77.5486 238° Southwest 423 487 38,000  Level FlightAware ADS-B
10:46PM 39.2535 -77.6129 238° Southwest 425 489 38,000  Level FlightAware ADS-B
10:47PM 39.2166 -77.6904 238° Southwest 426 490 38,000  Level FlightAware ADS-B
10:47PM 39.1834 -77.7593 238° Southwest 427 491 38,000  Level FlightAware ADS-B
10:48PM 39.1493 -77.8286 238° Southwest 428 493 38,000  Level FlightAware ADS-B
10:48PM 39.1140 -77.9018 238° Southwest 427 491 38,000  Level FlightAware ADS-B
10:49PM 39.0676 -77.9964 238° Southwest 427 491 38,000  Level FlightAware ADS-B
10:50PM 39.0290 -78.0760 238° Southwest 427 491 38,000  Level FlightAware
10:50PM 39.0166 -78.0994 236° Southwest 427 491 38,000  Level FlightAware ADS-B
10:51PM 38.9800 -78.1750 238° Southwest 427 491 38,000  Level FlightAware
10:51PM 38.9370 -78.2630 238° Southwest 428 493 38,000  Level FlightAware
10:52PM 38.8940 -78.3510 238° Southwest 428 493 38,000  Level FlightAware
10:53PM 38.8490 -78.4390 237° Southwest 428 493 38,000  Level FlightAware
10:53PM 38.8070 -78.5240 238° Southwest 429 494 38,000  Level FlightAware
10:54PM 38.7620 -78.6150 238° Southwest 430 495 38,000  Level FlightAware
10:55PM 38.7160 -78.7070 237° Southwest 430 495 38,000  Level FlightAware
10:55PM 38.6690 -78.8020 238° Southwest 432 497 38,000  Level FlightAware
10:56PM 38.6260 -78.8860 237° Southwest 433 498 38,000  Level FlightAware
10:57PM 38.5830 -78.9720 237° Southwest 433 498 38,000  Level FlightAware
10:58PM 38.5340 -79.0690 237° Southwest 434 499 38,000  Level FlightAware
10:58PM 38.4870 -79.1610 237° Southwest 434 499 38,000  Level FlightAware
10:59PM 38.4410 -79.2510 237° Southwest 434 499 38,000  Level FlightAware
11:00PM 38.3940 -79.3440 237° Southwest 434 499 38,000  Level FlightAware
11:00PM 38.3500 -79.4300 237° Southwest 436 502 38,000  Level FlightAware
11:01PM 38.3040 -79.5200 237° Southwest 437 503 38,000  Level FlightAware
11:02PM 38.2560 -79.6130 237° Southwest 439 505 38,000  Level FlightAware
11:02PM 38.2160 -79.6910 237° Southwest 440 506 38,000  Level FlightAware
11:03PM 38.1600 -79.8000 237° Southwest 443 510 38,000  Level FlightAware
11:04PM 38.1130 -79.8890 236° Southwest 446 513 38,000  Level FlightAware
11:05PM 38.0650 -79.9840 237° Southwest 449 517 38,000  Level FlightAware
11:05PM 38.0190 -80.0720 236° Southwest 451 519 38,000  Level FlightAware
11:06PM 37.9690 -80.1640 235° Southwest 451 519 38,000  Level FlightAware
11:07PM 37.9190 -80.2610 237° Southwest 451 519 38,000  Level FlightAware
11:07PM 37.8740 -80.3470 236° Southwest 450 518 38,000  Level FlightAware
11:08PM 37.8460 -80.4020 237° Southwest 450 518 38,000  Level FlightAware
11:09PM 37.7900 -80.5070 236° Southwest 449 517 38,000  Level FlightAware
11:09PM 37.7430 -80.5960 236° Southwest 448 516 38,000  Level FlightAware
11:10PM 37.6990 -80.6790 236° Southwest 449 517 38,000  Level FlightAware
11:11PM 37.6520 -80.7660 236° Southwest 447 514 38,000  Level FlightAware
11:11PM 37.5970 -80.8700 236° Southwest 449 517 38,000  Level FlightAware
11:12PM 37.5500 -80.9570 236° Southwest 451 519 38,000  Level FlightAware
11:13PM 37.4810 -81.0860 236° Southwest 454 522 38,000  Level FlightAware
11:14PM 37.4350 -81.1720 236° Southwest 456 525 38,000  Level FlightAware
11:14PM 37.3830 -81.2680 236° Southwest 457 526 38,000  Level FlightAware
11:15PM 37.3320 -81.3610 235° Southwest 460 529 38,000  Level FlightAware
11:16PM 37.2801 -81.4557 235° Southwest 460 529 38,000  Level FlightAware ADS-B
11:16PM 37.2431 -81.5241 236° Southwest 460 529 38,000  Level FlightAware ADS-B
11:17PM 37.2069 -81.5901 235° Southwest 460 529 38,000  Level FlightAware ADS-B
11:17PM 37.1697 -81.6583 236° Southwest 460 529 38,000  Level FlightAware ADS-B
11:18PM 37.1333 -81.7264 236° Southwest 460 529 38,000  Level FlightAware ADS-B
11:18PM 37.0930 -81.7990 235° Southwest 462 532 38,000  Level FlightAware ADS-B
11:19PM 37.0493 -81.8782 235° Southwest 462 532 38,000  Level FlightAware ADS-B
11:20PM 37.0059 -81.9574 236° Southwest 462 532 38,000  Level FlightAware ADS-B
11:20PM 36.9663 -82.0275 235° Southwest 460 529 38,000  Level FlightAware ADS-B
11:21PM 36.9288 -82.0953 235° Southwest 460 529 38,000  Level FlightAware ADS-B
11:21PM 36.8875 -82.1715 236° Southwest 459 528 38,000  Level FlightAware ADS-B
11:22PM 36.8503 -82.2369 235° Southwest 459 528 38,000  Level FlightAware ADS-B
11:22PM 36.8120 -82.3065 236° Southwest 460 529 38,000  Level FlightAware ADS-B
11:23PM 36.7743 -82.3738 235° Southwest 459 528 38,000  Level FlightAware ADS-B
11:24PM 36.6906 -82.5237 235° Southwest 460 529 38,000  Level FlightAware ADS-B
11:24PM 36.6532 -82.5885 234° Southwest 457 526 38,000  Level FlightAware ADS-B
11:25PM 36.6098 -82.6661 235° Southwest 457 526 38,000  Level FlightAware ADS-B
11:26PM 36.5465 -82.7782 235° Southwest 457 526 38,000  Level FlightAware ADS-B
11:26PM 36.5097 -82.8429 235° Southwest 459 528 38,000  Level FlightAware ADS-B
11:27PM 36.4310 -82.9620 231° Southwest 467 537 38,000  Level FlightAware
11:28PM 36.4011 -83.0000 226° Southwest 461 531 38,000  Level FlightAware ADS-B
11:28PM 36.3548 -83.0595 226° Southwest 468 539 38,000  Level FlightAware ADS-B
11:29PM 36.3173 -83.1059 225° Southwest 469 540 38,000  Level FlightAware ADS-B
11:29PM 36.2672 -83.1723 227° Southwest 470 541 38,000  Level FlightAware ADS-B
11:30PM 36.2226 -83.2314 227° Southwest 470 541 38,000  Level FlightAware ADS-B
11:30PM 36.1674 -83.3039 227° Southwest 471 542 38,000  Level FlightAware ADS-B
11:31PM 36.1212 -83.3648 227° Southwest 474 545 38,000  Level FlightAware ADS-B
11:31PM 36.0749 -83.4245 226° Southwest 476 548 38,000  Level FlightAware ADS-B
11:32PM 36.0303 -83.4870 229° Southwest 477 549 38,000  Level FlightAware ADS-B
11:32PM 35.9852 -83.5483 228° Southwest 479 551 38,000  Level FlightAware ADS-B
11:33PM 35.9389 -83.6136 229° Southwest 479 551 38,000  Level FlightAware ADS-B
11:33PM 35.8949 -83.6758 229° Southwest 480 552 38,000  Level FlightAware ADS-B
11:34PM 35.8478 -83.7485 231° Southwest 480 552 38,000  Level FlightAware ADS-B
11:35PM 35.8007 -83.8243 233° Southwest 480 552 38,000  Level FlightAware ADS-B
11:35PM 35.7597 -83.8893 232° Southwest 479 551 38,000  Level FlightAware ADS-B
11:36PM 35.7189 -83.9543 232° Southwest 479 551 38,000  Level FlightAware ADS-B
11:36PM 35.6771 -84.0235 233° Southwest 480 552 38,000  Level FlightAware ADS-B
11:37PM 35.6361 -84.0886 232° Southwest 482 555 38,000  Level FlightAware ADS-B
11:37PM 35.5915 -84.1606 233° Southwest 484 557 38,000  Level FlightAware ADS-B
11:38PM 35.5501 -84.2260 232° Southwest 485 558 38,000  Level FlightAware ADS-B
11:38PM 35.5076 -84.2935 232° Southwest 486 559 38,000  Level FlightAware ADS-B
11:39PM 35.4663 -84.3588 232° Southwest 485 558 38,000  Level FlightAware ADS-B
11:39PM 35.4245 -84.4263 233° Southwest 485 558 38,000  Level FlightAware ADS-B
11:40PM 35.3741 -84.5046 232° Southwest 485 558 38,000  Level FlightAware ADS-B
11:40PM 35.3327 -84.5697 232° Southwest 485 558 38,000  Level FlightAware ADS-B
11:41PM 35.2858 -84.6461 233° Southwest 485 558 38,000  Level FlightAware ADS-B
11:41PM 35.2588 -84.6993 238° Southwest 485 558 38,000  Level FlightAware ADS-B
11:41PM 35.2405 -84.7406 242° Southwest 485 558 38,000  Level FlightAware ADS-B
11:42PM 35.2126 -84.8178 246° West 483 556 38,000  Level FlightAware ADS-B
11:42PM 35.1848 -84.8926 246° West 482 555 38,000  Level FlightAware ADS-B
11:43PM 35.1572 -84.9671 246° West 483 556 38,000  Level FlightAware ADS-B
11:44PM 35.1294 -85.0416 245° Southwest 482 555 38,000  Level FlightAware ADS-B
11:44PM 35.1016 -85.1185 246° West 481 554 38,000  Level FlightAware ADS-B
11:45PM 35.0733 -85.1950 246° West 480 552 38,000  Level FlightAware ADS-B
11:45PM 35.0380 -85.2910 246° West 478 550 38,000  Level FlightAware
11:45PM 35.0281 -85.3159 244° Southwest 479 551 38,000  Level FlightAware ADS-B
11:46PM 34.9995 -85.3945 246° West 478 550 38,000  Level FlightAware ADS-B
11:46PM 34.9715 -85.4703 246° West 476 548 38,000  Level FlightAware ADS-B
11:47PM 34.9436 -85.5436 245° Southwest 475 547 38,000  Level FlightAware ADS-B
11:47PM 34.9286 -85.5851 246° West 475 547 38,000  Level FlightAware ADS-B
11:47PM 34.9147 -85.6328 250° West 473 544 38,000  Level FlightAware ADS-B
11:48PM 34.9013 -85.7133 259° West 471 542 38,000  Level FlightAware ADS-B
11:49PM 34.8916 -85.7994 262° West 469 540 38,000  Level FlightAware ADS-B
11:49PM 34.8789 -85.9248 263° West 468 539 38,000  Level FlightAware ADS-B
11:50PM 34.8699 -86.0106 263° West 467 537 38,000  Level FlightAware ADS-B
11:50PM 34.8611 -86.0940 263° West 466 536 38,000  Level FlightAware ADS-B
11:51PM 34.8527 -86.1718 263° West 465 535 38,000  Level FlightAware ADS-B
11:51PM 34.8432 -86.2570 262° West 464 534 38,000  Level FlightAware ADS-B
11:52PM 34.8320 -86.3580 262° West 463 533 38,000  Level FlightAware ADS-B
11:53PM 34.8233 -86.4352 262° West 463 533 38,000  Level FlightAware ADS-B
11:53PM 34.8143 -86.5177 262° West 462 532 38,000  Level FlightAware ADS-B
11:54PM 34.8054 -86.5950 262° West 463 533 38,000  Level FlightAware ADS-B
11:54PM 34.7950 -86.6850 262° West 463 533 38,000  Level FlightAware
11:54PM 34.7920 -86.7137 263° West 463 533 38,000  Level FlightAware ADS-B
11:55PM 34.7830 -86.7880 262° West 464 534 38,000  Level FlightAware
11:56PM 34.7740 -86.8720 263° West 464 534 38,000  Level FlightAware
11:56PM 34.7682 -87.0011 267° West 465 535 38,000  Level FlightAware ADS-B
11:57PM 34.7809 -87.1019 279° West 465 535 38,000  Level FlightAware ADS-B
11:58PM 34.8019 -87.2642 279° West 466 536 38,000 -360 Level Memphis Center
11:59PM 34.8203 -87.4203 278° West 466 536 37,300 -960 Descending Memphis Center
12:00AM 34.8444 -87.5686 281° West 460 529 36,100 -1,920 Descending Memphis Center
12:01AM 34.8650 -87.7375 278° West 471 542 33,500 -2,760 Descending Memphis Center
12:02AM 34.8822 -87.8686 279° West 482 555 30,600 -3,360 Descending Memphis Center
12:03AM 34.9019 -88.0275 279° West 471 542 26,800 -3,540 Descending Memphis Center
12:04AM 34.9236 -88.1942 279° West 460 529 23,600 -3,000 Descending Memphis Center
12:05AM 34.9428 -88.3356 279° West 446 513 20,800 -2,820 Descending Memphis Center
12:06AM 34.9594 -88.4694 279° West 425 489 18,000 -2,460 Descending Memphis Center
12:07AM 34.9739 -88.5856 279° West 399 459 15,900 -2,220 Descending Memphis Center
12:08AM 34.9922 -88.7169 280° West 379 436 13,600 -2,460 Descending Memphis Center
12:09AM 35.0061 -88.8258 279° West 345 397 11,000 -1,800 Descending Memphis Center
12:10AM 35.0178 -88.9269 278° West 326 375 10,000 -600 Descending Memphis Center
12:11AM 35.0272 -89.0181 277° West 298 343 9,800 -420 Descending Memphis Center
12:12AM 35.0344 -89.1069 276° West 270 311 9,200 -900 Descending Memphis Center
12:13AM 35.0372 -89.1931 272° West 262 302 8,100 -1,200 Descending Memphis Center
12:14AM 35.0403 -89.2792 273° West 254 292 6,900 -1,200 Descending Memphis Center
12:15AM 35.0408 -89.3628 270° West 254 292 5,800 -1,020 Descending Memphis Center
12:16AM 35.0436 -89.4389 273° West 245 282 4,900 -840 Descending Memphis Center
12:17AM 35.0461 -89.5175 272° West 235 270 4,200 -480 Descending Memphis Center
12:18AM 35.0489 -89.5961 272° West 235 270 4,000 -420 Descending Memphis Center
12:19AM 35.0514 -89.6672 272° West 224 258 3,400 -600 Descending Memphis Center
12:20AM 35.0536 -89.7356 272° West 211 243 2,800 -600 Descending Memphis Center
12:21AM 35.0542 -89.7964 271° West 190 219 2,300 -420 Descending Memphis Center
12:22AM 35.0564 -89.8447 273° West 177 204 2,000 -420 Descending Memphis Center
12:23AM 35.0500 -89.8833 259° West 122 140 1,600 -600 Descending KMEM
12:24AM 35.0500 -89.9167 270° West 107 123 900 -720 Descending KMEM
12:26AM 35.0333 -89.9667 270° West  Level FlightAware Approximate
12:33AM 35.0424 -89.9767 270° West  Level Estimated
12:34AM 35.0424 -89.9767 270° West  Level Estimated
12:35AM 35.0424 -89.9767 270° West  Level Estimated
12:36AM 35.0424 -89.9767 270° West  Level Estimated
12:37AM 35.0424 -89.9767 270° West  Level Estimated
12:38AM 35.0424 -89.9767 270° West  Level Estimated
12:39AM 35.0424 -89.9767 270° West  Level Estimated
12:40AM 35.0424 -89.9767 270° West  Level Estimated